Time;durP1;ratioP1;P1;durP2;ratioP2;P2;SDS_P1;SDS_P2;PMS_P1;PMS_P2;Temp;Humidity;BMP_temperature;BMP_pressure;BME280_temperature;BME280_humidity;BME280_pressure;Samples;Min_cycle;Max_cycle;Signal;HPM_P1;HPM_P2
2022/10/23 00:02:01;;;;;;;31.48;12.93;;;10.90;99.90;;;;;;5050798;28;20095;-89
2022/10/23 00:04:27;;;;;;;21.95;12.50;;;10.90;99.90;;;;;;5049945;28;20483;-89
2022/10/23 00:06:53;;;;;;;26.38;13.50;;;11.00;99.90;;;;;;5042507;28;20037;-89
2022/10/23 00:09:22;;;;;;;26.27;12.20;;;11.00;99.90;;;;;;5055392;28;20044;-89
2022/10/23 00:11:49;;;;;;;28.35;12.55;;;11.00;99.90;;;;;;5048001;28;20037;-89
2022/10/23 00:14:17;;;;;;;18.25;10.43;;;11.00;99.90;;;;;;5068523;28;20080;-88
2022/10/23 00:16:43;;;;;;;20.73;11.20;;;10.90;99.90;;;;;;5065133;28;20045;-86
2022/10/23 00:19:09;;;;;;;22.70;11.65;;;10.90;99.90;;;;;;5052021;28;20053;-88
2022/10/23 00:21:34;;;;;;;20.65;11.65;;;10.90;99.90;;;;;;5067138;28;20059;-88
2022/10/23 00:24:00;;;;;;;21.73;11.25;;;10.80;99.90;;;;;;5053167;28;20091;-89
2022/10/23 00:26:26;;;;;;;21.95;10.52;;;10.80;99.90;;;;;;5053139;28;20079;-88
2022/10/23 00:28:52;;;;;;;18.10;9.98;;;10.80;99.90;;;;;;5043286;28;20078;-89
2022/10/23 00:31:20;;;;;;;22.88;10.40;;;10.80;99.90;;;;;;5062225;28;20487;-90
2022/10/23 00:33:46;;;;;;;19.40;9.73;;;10.80;99.90;;;;;;5044641;28;20044;-89
2022/10/23 00:36:14;;;;;;;21.58;9.38;;;10.80;99.90;;;;;;5064468;28;20051;-90
2022/10/23 00:38:40;;;;;;;23.38;9.07;;;10.80;99.90;;;;;;5063836;28;20523;-89
2022/10/23 00:41:07;;;;;;;23.45;9.23;;;10.80;99.90;;;;;;5056826;28;20051;-89
2022/10/23 00:43:52;;;;;;;17.80;8.85;;;10.80;99.90;;;;;;5068992;28;20052;-90
2022/10/23 00:46:18;;;;;;;17.23;8.35;;;10.80;99.90;;;;;;5073741;28;20040;-89
2022/10/23 00:48:44;;;;;;;22.23;9.52;;;10.80;99.90;;;;;;5054885;28;20047;-90
2022/10/23 00:51:09;;;;;;;20.08;8.57;;;10.80;99.90;;;;;;5046888;28;20080;-90
2022/10/23 00:53:36;;;;;;;16.30;8.77;;;10.80;99.90;;;;;;5064697;28;20037;-89
2022/10/23 00:56:02;;;;;;;14.15;8.02;;;10.90;99.90;;;;;;5052115;28;20057;-91
2022/10/23 00:58:27;;;;;;;17.05;8.88;;;10.90;99.90;;;;;;5060221;28;20041;-90
2022/10/23 01:00:55;;;;;;;16.25;8.30;;;11.00;99.90;;;;;;5050932;28;20051;-90
2022/10/23 01:03:26;;;;;;;18.65;8.30;;;11.00;99.90;;;;;;5064215;28;20044;-90
2022/10/23 01:06:11;;;;;;;26.02;8.95;;;10.90;99.90;;;;;;5062943;28;20040;-90
2022/10/23 01:08:42;;;;;;;18.88;8.75;;;11.00;99.90;;;;;;5066707;28;20072;-89
2022/10/23 01:11:36;;;;;;;18.20;8.27;;;11.00;99.90;;;;;;5071195;28;20041;-90
2022/10/23 01:14:29;;;;;;;16.75;7.50;;;11.00;99.90;;;;;;5057489;28;20056;-90
2022/10/23 01:17:10;;;;;;;17.38;8.43;;;11.00;99.90;;;;;;5066240;28;21020;-90
2022/10/23 01:19:54;;;;;;;13.18;8.25;;;10.90;99.90;;;;;;5069310;28;20044;-90
2022/10/23 01:22:58;;;;;;;15.90;7.60;;;10.90;99.90;;;;;;5046004;28;20083;-91
2022/10/23 01:26:00;;;;;;;22.80;8.32;;;10.80;99.90;;;;;;5065344;28;20470;-89
2022/10/23 01:28:50;;;;;;;15.40;8.82;;;10.80;99.90;;;;;;5048375;28;20053;-89
2022/10/23 01:31:23;;;;;;;20.92;8.27;;;10.70;99.90;;;;;;5055366;28;20048;-89
2022/10/23 01:33:57;;;;;;;15.63;7.93;;;10.70;99.90;;;;;;5061746;28;20060;-89
2022/10/23 01:36:28;;;;;;;18.95;8.95;;;10.70;99.90;;;;;;5066056;28;20045;-89
2022/10/23 01:38:53;;;;;;;14.50;7.82;;;10.60;99.90;;;;;;5062121;28;20063;-89
2022/10/23 01:41:32;;;;;;;13.32;7.90;;;10.60;99.90;;;;;;5063161;28;20060;-90
2022/10/23 01:44:25;;;;;;;15.27;8.13;;;10.60;99.90;;;;;;5061484;28;20721;-88
2022/10/23 01:46:52;;;;;;;19.20;7.10;;;10.60;99.90;;;;;;5046948;28;20159;-89
2022/10/23 01:49:19;;;;;;;15.50;8.00;;;10.50;99.90;;;;;;5065981;28;20438;-90
2022/10/23 01:51:50;;;;;;;20.73;7.22;;;10.60;99.90;;;;;;5035878;28;20126;-89
2022/10/23 01:54:21;;;;;;;14.90;8.07;;;10.60;99.90;;;;;;5062240;28;20112;-89
2022/10/23 01:56:50;;;;;;;16.83;8.00;;;10.50;99.90;;;;;;5066899;28;20303;-90
2022/10/23 01:59:21;;;;;;;12.80;7.43;;;10.50;99.90;;;;;;5069120;28;20051;-89
2022/10/23 02:01:49;;;;;;;14.67;7.63;;;10.50;99.90;;;;;;5060454;28;20116;-90
2022/10/23 02:04:22;;;;;;;14.35;7.97;;;10.40;99.90;;;;;;5062269;28;20343;-89
2022/10/23 02:06:48;;;;;;;20.27;10.35;;;10.40;99.90;;;;;;5065855;28;20033;-90
2022/10/23 02:09:14;;;;;;;16.73;8.48;;;10.50;99.90;;;;;;5060387;28;20573;-88
2022/10/23 02:11:52;;;;;;;14.27;8.13;;;10.40;99.90;;;;;;5063553;28;20053;-89
2022/10/23 02:14:40;;;;;;;17.98;7.65;;;10.40;99.90;;;;;;5061177;28;20048;-89
2022/10/23 02:17:24;;;;;;;18.80;8.40;;;10.40;99.90;;;;;;5064968;28;20036;-89
2022/10/23 02:20:01;;;;;;;12.35;7.43;;;10.40;99.90;;;;;;5047379;28;20069;-89
2022/10/23 02:22:37;;;;;;;21.40;7.72;;;10.40;99.90;;;;;;5063479;28;20049;-89
2022/10/23 02:25:10;;;;;;;18.23;7.40;;;10.40;99.90;;;;;;5069416;28;20047;-90
2022/10/23 02:27:47;;;;;;;15.25;8.02;;;10.40;99.90;;;;;;5062417;28;20049;-89
2022/10/23 02:30:16;;;;;;;16.45;7.13;;;10.40;99.90;;;;;;5046249;28;20068;-88
2022/10/23 02:32:49;;;;;;;14.45;7.68;;;10.40;99.90;;;;;;5063954;28;20036;-89
2022/10/23 02:35:17;;;;;;;15.73;8.10;;;10.40;99.90;;;;;;5080478;28;20044;-89
2022/10/23 02:37:42;;;;;;;16.40;7.68;;;10.40;99.90;;;;;;5059629;28;20084;-89
2022/10/23 02:40:10;;;;;;;17.52;7.22;;;10.30;99.90;;;;;;5038906;28;20056;-91
2022/10/23 02:42:43;;;;;;;14.45;7.90;;;10.30;99.90;;;;;;5065022;28;20048;-91
2022/10/23 02:45:16;;;;;;;13.00;7.30;;;10.30;99.90;;;;;;5068203;28;20040;-90
2022/10/23 02:48:03;;;;;;;17.77;7.82;;;10.30;99.90;;;;;;5066202;28;20248;-90
2022/10/23 02:50:36;;;;;;;15.90;6.90;;;10.30;99.90;;;;;;5064476;28;20040;-90
2022/10/23 02:53:40;;;;;;;11.73;6.70;;;10.30;99.90;;;;;;5059675;28;20491;-90
2022/10/23 02:56:18;;;;;;;10.27;7.07;;;10.30;99.90;;;;;;5069240;28;20525;-91
2022/10/23 02:59:12;;;;;;;13.10;6.10;;;10.30;99.90;;;;;;5069961;28;20060;-91
2022/10/23 03:01:51;;;;;;;15.93;7.85;;;10.20;99.90;;;;;;5060341;28;20051;-91
2022/10/23 03:04:20;;;;;;;15.50;8.10;;;10.20;99.90;;;;;;5043266;28;20053;-91
2022/10/23 03:06:48;;;;;;;20.75;8.32;;;10.30;99.90;;;;;;5065671;28;20041;-91
2022/10/23 03:09:13;;;;;;;22.42;8.85;;;10.30;99.90;;;;;;5055674;28;21059;-91
2022/10/23 03:11:39;;;;;;;16.08;8.10;;;10.20;99.90;;;;;;5046401;28;20053;-90
2022/10/23 03:14:05;;;;;;;22.65;8.90;;;10.30;99.90;;;;;;5047300;28;20115;-90
2022/10/23 03:16:31;;;;;;;19.48;7.63;;;10.30;99.90;;;;;;5064310;28;20067;-92
2022/10/23 03:18:56;;;;;;;21.48;8.23;;;10.30;99.90;;;;;;5066115;28;20053;-90
2022/10/23 03:21:22;;;;;;;14.38;7.45;;;10.30;99.90;;;;;;5068696;28;20068;-90
2022/10/23 03:23:48;;;;;;;13.60;7.90;;;10.30;99.90;;;;;;5059224;28;20116;-90
2022/10/23 03:26:13;;;;;;;20.00;7.25;;;10.30;99.90;;;;;;5045407;28;20055;-90
2022/10/23 03:28:39;;;;;;;21.70;8.55;;;10.30;99.90;;;;;;5058316;28;20101;-92
2022/10/23 03:31:05;;;;;;;18.80;8.70;;;10.40;99.90;;;;;;5029875;28;20048;-91
2022/10/23 03:33:31;;;;;;;17.73;8.65;;;10.40;99.90;;;;;;5063290;28;20079;-92
2022/10/23 03:35:57;;;;;;;24.35;7.68;;;10.40;99.90;;;;;;5050794;28;20072;-91
2022/10/23 03:38:22;;;;;;;17.80;7.97;;;10.40;99.90;;;;;;5064208;28;20049;-91
2022/10/23 03:40:48;;;;;;;17.95;7.65;;;10.30;99.90;;;;;;5064782;28;20056;-90
2022/10/23 03:43:14;;;;;;;25.77;8.68;;;10.30;99.90;;;;;;5051904;28;20037;-90
2022/10/23 03:45:40;;;;;;;14.95;7.35;;;10.30;99.90;;;;;;5051074;28;20051;-90
2022/10/23 03:48:06;;;;;;;13.38;7.57;;;10.30;99.90;;;;;;5061508;28;20053;-90
2022/10/23 03:50:33;;;;;;;18.52;9.35;;;10.30;99.90;;;;;;5049362;28;20100;-90
2022/10/23 03:52:59;;;;;;;13.50;7.15;;;10.30;99.90;;;;;;5053198;28;20059;-91
2022/10/23 03:55:25;;;;;;;15.38;8.10;;;10.30;99.90;;;;;;5036378;28;20056;-91
2022/10/23 03:57:52;;;;;;;17.45;7.22;;;10.30;99.90;;;;;;5051478;28;20048;-91
2022/10/23 04:00:18;;;;;;;19.25;7.35;;;10.30;99.90;;;;;;5060386;28;20068;-89
2022/10/23 04:02:44;;;;;;;15.75;7.93;;;10.30;99.90;;;;;;5052590;28;20036;-91
2022/10/23 04:05:10;;;;;;;17.08;7.63;;;10.30;99.90;;;;;;5051485;28;20049;-90
2022/10/23 04:07:36;;;;;;;11.27;6.93;;;10.30;99.90;;;;;;5062740;28;20355;-91
2022/10/23 04:10:03;;;;;;;17.92;7.75;;;10.20;99.90;;;;;;5045051;28;20048;-89
2022/10/23 04:12:28;;;;;;;22.50;7.88;;;10.20;99.90;;;;;;5045643;28;20138;-90
2022/10/23 04:14:54;;;;;;;15.00;7.22;;;10.20;99.90;;;;;;5046875;28;20083;-90
2022/10/23 04:17:20;;;;;;;17.63;7.75;;;10.20;99.90;;;;;;5046684;28;20045;-88
2022/10/23 04:19:45;;;;;;;15.48;7.03;;;10.10;99.90;;;;;;5034704;28;20085;-89
2022/10/23 04:22:11;;;;;;;16.30;7.30;;;10.10;99.90;;;;;;5052539;28;20117;-88
2022/10/23 04:24:37;;;;;;;24.58;8.07;;;10.10;99.90;;;;;;5062628;28;20041;-88
2022/10/23 04:27:02;;;;;;;15.20;6.88;;;10.10;99.90;;;;;;5060959;28;20082;-89
2022/10/23 04:29:31;;;;;;;15.55;8.07;;;10.10;99.90;;;;;;5050552;28;20064;-89
2022/10/23 04:31:57;;;;;;;15.27;7.25;;;10.00;99.90;;;;;;5046527;28;20127;-89
2022/10/23 04:34:23;;;;;;;13.80;7.18;;;10.10;99.90;;;;;;5064862;28;20043;-88
2022/10/23 04:36:48;;;;;;;14.25;6.47;;;10.10;99.90;;;;;;5063848;28;20045;-89
2022/10/23 04:39:14;;;;;;;13.95;7.28;;;10.00;99.90;;;;;;5055847;28;20068;-89
2022/10/23 04:41:40;;;;;;;11.50;6.95;;;10.00;99.90;;;;;;5043642;28;20064;-88
2022/10/23 04:44:06;;;;;;;14.30;7.00;;;10.00;99.90;;;;;;5046793;28;20064;-89
2022/10/23 04:46:32;;;;;;;15.98;7.53;;;10.00;99.90;;;;;;5068535;28;20100;-89
2022/10/23 04:48:57;;;;;;;16.20;6.82;;;10.00;99.90;;;;;;5070244;28;20079;-89
2022/10/23 04:51:23;;;;;;;12.30;6.65;;;10.00;99.90;;;;;;5067745;28;20045;-89
2022/10/23 04:53:49;;;;;;;10.18;5.90;;;9.90;99.90;;;;;;5047030;28;20077;-89
2022/10/23 04:56:15;;;;;;;13.27;6.18;;;9.90;99.90;;;;;;5067464;28;20040;-89
2022/10/23 04:58:41;;;;;;;16.15;6.28;;;9.90;99.90;;;;;;5061001;28;20051;-90
2022/10/23 05:01:09;;;;;;;11.10;5.65;;;9.90;99.90;;;;;;5057763;28;20045;-90
2022/10/23 05:03:36;;;;;;;12.35;6.35;;;9.80;99.90;;;;;;5070188;28;20037;-89
2022/10/23 05:06:03;;;;;;;10.30;5.80;;;9.90;99.90;;;;;;5080290;28;20098;-90
2022/10/23 05:08:28;;;;;;;12.88;6.03;;;9.80;99.90;;;;;;5058371;28;20040;-89
2022/10/23 05:10:54;;;;;;;13.05;6.15;;;9.80;99.90;;;;;;5055311;28;20133;-89
2022/10/23 05:13:20;;;;;;;11.75;6.15;;;9.80;99.90;;;;;;5048362;28;20515;-89
2022/10/23 05:15:47;;;;;;;16.48;6.45;;;9.80;99.90;;;;;;5043369;28;20135;-89
2022/10/23 05:18:27;;;;;;;12.52;6.93;;;9.80;99.90;;;;;;5064475;28;20313;-89
2022/10/23 05:20:58;;;;;;;12.90;5.97;;;9.70;99.90;;;;;;5063000;28;20072;-89
2022/10/23 05:23:25;;;;;;;15.40;7.43;;;9.70;99.90;;;;;;5065191;28;20029;-89
2022/10/23 05:25:51;;;;;;;13.93;6.32;;;9.70;99.90;;;;;;5072402;28;20041;-91
2022/10/23 05:28:16;;;;;;;18.27;8.43;;;9.70;99.90;;;;;;5078414;28;20048;-89
2022/10/23 05:30:42;;;;;;;16.35;7.22;;;9.70;99.90;;;;;;5082115;28;20056;-90
2022/10/23 05:33:09;;;;;;;11.57;7.35;;;9.70;99.90;;;;;;5060724;28;20119;-90
2022/10/23 05:35:36;;;;;;;9.23;6.32;;;9.70;99.90;;;;;;5030048;28;20037;-90
2022/10/23 05:38:02;;;;;;;12.25;7.25;;;9.70;99.90;;;;;;5043703;28;20056;-90
2022/10/23 05:40:28;;;;;;;12.70;7.93;;;9.70;99.90;;;;;;5059979;28;20045;-90
2022/10/23 05:42:54;;;;;;;16.92;8.38;;;9.70;99.90;;;;;;5055118;28;20080;-90
2022/10/23 05:45:19;;;;;;;20.10;8.43;;;9.80;99.90;;;;;;5067716;28;20048;-89
2022/10/23 05:47:45;;;;;;;13.02;7.50;;;9.80;99.90;;;;;;5033099;28;20094;-90
2022/10/23 05:50:11;;;;;;;16.52;8.63;;;9.80;99.90;;;;;;5050611;28;20108;-90
2022/10/23 05:52:37;;;;;;;22.65;8.82;;;9.80;99.90;;;;;;5060561;28;20053;-90
2022/10/23 05:55:02;;;;;;;15.00;7.82;;;9.90;99.90;;;;;;5073881;28;20036;-90
2022/10/23 05:57:32;;;;;;;12.95;6.97;;;9.80;99.90;;;;;;5060335;28;20045;-90
2022/10/23 05:59:57;;;;;;;17.17;8.00;;;9.80;99.90;;;;;;5065393;28;20069;-90
2022/10/23 06:02:23;;;;;;;16.92;8.63;;;9.90;99.90;;;;;;5068372;28;20040;-91
2022/10/23 06:04:49;;;;;;;15.02;7.53;;;9.90;99.90;;;;;;5066177;28;20059;-90
2022/10/23 06:07:14;;;;;;;19.02;8.55;;;9.90;99.90;;;;;;5075580;28;20049;-92
2022/10/23 06:09:40;;;;;;;19.33;8.90;;;9.80;99.90;;;;;;5064473;28;20036;-93
2022/10/23 06:12:06;;;;;;;17.88;8.05;;;9.90;99.90;;;;;;5062023;28;20090;-91
2022/10/23 06:14:31;;;;;;;14.88;7.53;;;9.90;99.90;;;;;;5080261;28;20059;-91
2022/10/23 06:16:57;;;;;;;15.27;8.43;;;9.90;99.90;;;;;;5064385;28;20045;-89
2022/10/23 06:19:23;;;;;;;15.80;8.73;;;9.90;99.90;;;;;;5060944;28;20072;-89
2022/10/23 06:21:48;;;;;;;16.67;7.80;;;9.90;99.90;;;;;;5054945;28;20064;-88
2022/10/23 06:24:14;;;;;;;16.73;7.65;;;9.90;99.90;;;;;;5060512;28;20041;-88
2022/10/23 06:26:40;;;;;;;15.68;8.38;;;9.90;99.90;;;;;;5063193;28;20052;-88
2022/10/23 06:29:06;;;;;;;14.15;7.15;;;9.90;99.90;;;;;;5046719;28;20048;-89
2022/10/23 06:31:31;;;;;;;19.25;8.63;;;10.00;99.90;;;;;;5058337;28;20403;-88
2022/10/23 06:33:58;;;;;;;15.57;7.50;;;10.00;99.90;;;;;;5054313;28;20104;-88
2022/10/23 06:36:24;;;;;;;15.65;7.82;;;10.00;99.90;;;;;;5039214;28;20049;-89
2022/10/23 06:38:50;;;;;;;17.05;8.15;;;10.00;99.90;;;;;;5044831;28;20048;-89
2022/10/23 06:41:19;;;;;;;11.93;7.10;;;10.00;99.90;;;;;;5061540;28;20078;-88
2022/10/23 06:43:47;;;;;;;19.05;8.27;;;10.00;99.90;;;;;;5058290;28;20080;-88
2022/10/23 06:46:13;;;;;;;20.17;8.07;;;10.10;99.90;;;;;;5063044;28;20072;-89
2022/10/23 06:48:40;;;;;;;16.90;7.20;;;10.10;99.90;;;;;;5055068;28;20486;-90
2022/10/23 06:51:09;;;;;;;12.65;7.45;;;10.10;99.90;;;;;;5046586;28;20040;-89
2022/10/23 06:53:36;;;;;;;14.80;7.30;;;10.20;99.90;;;;;;5056047;28;20059;-89
2022/10/23 06:56:04;;;;;;;17.52;7.45;;;10.20;99.90;;;;;;5081238;28;20045;-88
2022/10/23 06:58:30;;;;;;;16.42;8.20;;;10.20;99.90;;;;;;5046351;28;20037;-89
2022/10/23 07:00:58;;;;;;;10.55;7.43;;;10.30;99.90;;;;;;5049915;28;20037;-90
2022/10/23 07:03:24;;;;;;;15.70;7.55;;;10.30;99.90;;;;;;5041322;28;20065;-88
2022/10/23 07:05:49;;;;;;;13.10;8.45;;;10.30;99.90;;;;;;5053963;28;20095;-90
2022/10/23 07:08:15;;;;;;;16.70;7.88;;;10.30;99.90;;;;;;5064366;28;20048;-88
2022/10/23 07:10:41;;;;;;;17.85;7.47;;;10.30;99.90;;;;;;5060865;28;20050;-88
2022/10/23 07:13:11;;;;;;;17.83;8.23;;;10.40;99.90;;;;;;5064980;28;20517;-88
2022/10/23 07:15:37;;;;;;;16.10;6.85;;;10.40;99.90;;;;;;5062147;28;20039;-88
2022/10/23 07:18:04;;;;;;;17.50;7.57;;;10.40;99.90;;;;;;5060945;28;20052;-86
2022/10/23 07:20:30;;;;;;;17.33;7.97;;;10.50;99.90;;;;;;5058448;28;20049;-86
2022/10/23 07:22:56;;;;;;;16.58;6.78;;;10.50;99.90;;;;;;5048209;28;20095;-88
2022/10/23 07:25:23;;;;;;;13.00;7.38;;;10.60;99.90;;;;;;5069026;28;20105;-87
2022/10/23 07:27:50;;;;;;;9.50;6.28;;;10.60;99.90;;;;;;5043191;28;20040;-90
2022/10/23 07:30:16;;;;;;;20.20;7.13;;;10.60;99.90;;;;;;5060324;28;20041;-88
2022/10/23 07:32:42;;;;;;;12.18;6.97;;;10.60;99.90;;;;;;5063812;28;20041;-89
2022/10/23 07:35:08;;;;;;;19.33;7.43;;;10.70;99.90;;;;;;5061901;28;20040;-88
2022/10/23 07:37:34;;;;;;;16.08;6.72;;;10.70;99.90;;;;;;5059067;28;20036;-89
2022/10/23 07:40:00;;;;;;;13.10;6.15;;;10.70;99.90;;;;;;5060872;28;20138;-89
2022/10/23 07:42:25;;;;;;;11.60;6.35;;;10.80;99.90;;;;;;5054944;28;20123;-89
2022/10/23 07:44:51;;;;;;;16.67;5.88;;;10.80;99.90;;;;;;5056200;28;20127;-87
2022/10/23 07:47:17;;;;;;;13.48;6.53;;;10.90;99.90;;;;;;5062969;28;20040;-89
2022/10/23 07:49:42;;;;;;;10.88;6.25;;;10.90;99.90;;;;;;5060360;28;20045;-91
2022/10/23 07:52:09;;;;;;;12.70;6.88;;;10.90;99.90;;;;;;5052453;28;20045;-93
2022/10/23 07:54:34;;;;;;;19.02;6.63;;;11.00;99.90;;;;;;5058990;28;20133;-93
2022/10/23 07:57:00;;;;;;;13.43;7.15;;;11.10;99.90;;;;;;5047783;28;20072;-94
2022/10/23 07:59:26;;;;;;;12.63;6.25;;;11.10;99.90;;;;;;5058790;28;20055;-88
2022/10/23 08:01:55;;;;;;;15.45;7.13;;;11.10;99.90;;;;;;5057955;28;20041;-89
2022/10/23 08:04:21;;;;;;;19.63;6.70;;;11.10;99.90;;;;;;5058261;28;20063;-89
2022/10/23 08:06:47;;;;;;;17.02;6.85;;;11.20;99.90;;;;;;5045522;28;20041;-89
2022/10/23 08:09:12;;;;;;;13.15;6.03;;;11.20;99.90;;;;;;5069627;28;20047;-89
2022/10/23 08:11:38;;;;;;;14.25;6.70;;;11.30;99.90;;;;;;5060839;28;20051;-90
2022/10/23 08:14:05;;;;;;;17.40;6.78;;;11.30;99.90;;;;;;5068192;28;20392;-90
2022/10/23 08:16:34;;;;;;;9.50;5.50;;;11.40;99.90;;;;;;5053135;28;20053;-95
2022/10/23 08:19:00;;;;;;;11.93;6.40;;;11.40;99.90;;;;;;5065797;28;20056;-89
2022/10/23 08:21:26;;;;;;;15.70;5.95;;;11.40;99.90;;;;;;5064031;28;20048;-89
2022/10/23 08:23:57;;;;;;;15.18;6.55;;;11.50;99.90;;;;;;5075832;28;20099;-93
2022/10/23 08:26:23;;;;;;;13.45;7.10;;;11.60;99.90;;;;;;5065643;28;20044;-91
2022/10/23 08:28:50;;;;;;;11.48;6.63;;;11.60;99.90;;;;;;5057121;28;20037;-88
2022/10/23 08:31:19;;;;;;;14.88;6.25;;;11.70;99.90;;;;;;5064590;28;20049;-90
2022/10/23 08:33:44;;;;;;;15.38;6.38;;;11.90;99.90;;;;;;5081130;28;20044;-90
2022/10/23 08:36:24;;;;;;;14.43;5.88;;;11.90;99.90;;;;;;5061788;28;20055;-90
2022/10/23 08:38:52;;;;;;;9.60;5.80;;;11.90;99.90;;;;;;5079208;28;20040;-91
2022/10/23 08:41:28;;;;;;;15.75;5.68;;;12.00;99.90;;;;;;5081799;28;20040;-91
2022/10/23 08:44:05;;;;;;;14.07;5.47;;;12.10;99.90;;;;;;5081521;28;20048;-90
2022/10/23 08:46:39;;;;;;;11.60;5.53;;;12.20;99.90;;;;;;5081114;28;20459;-91
2022/10/23 08:49:47;;;;;;;12.18;5.30;;;12.30;99.90;;;;;;5065463;28;20107;-90
2022/10/23 08:52:39;;;;;;;13.98;5.72;;;12.40;99.90;;;;;;5065856;28;20089;-92
2022/10/23 08:55:16;;;;;;;17.90;5.25;;;12.50;99.90;;;;;;5081022;28;20041;-91
2022/10/23 08:57:59;;;;;;;15.07;5.97;;;12.60;99.90;;;;;;5079915;28;20072;-90
2022/10/23 09:00:25;;;;;;;12.13;4.88;;;12.70;99.90;;;;;;5045045;28;20061;-91
2022/10/23 09:02:52;;;;;;;11.88;5.05;;;12.80;99.90;;;;;;5059740;28;20116;-91
2022/10/23 09:05:24;;;;;;;8.57;5.15;;;12.80;99.90;;;;;;5065167;28;20045;-93
2022/10/23 09:07:59;;;;;;;10.20;4.78;;;12.90;99.90;;;;;;5071411;28;20049;-89
2022/10/23 09:10:49;;;;;;;10.00;4.93;;;13.00;99.90;;;;;;5070540;28;20073;-89
2022/10/23 09:13:50;;;;;;;9.90;6.00;;;13.00;99.90;;;;;;5082574;28;20099;-89
2022/10/23 09:16:25;;;;;;;10.95;4.95;;;13.10;99.90;;;;;;5065787;28;20040;-93
2022/10/23 09:18:51;;;;;;;12.07;4.10;;;13.20;99.90;;;;;;5082188;28;20074;-94
2022/10/23 09:21:16;;;;;;;19.65;6.10;;;13.20;99.90;;;;;;5064470;28;20055;-93
2022/10/23 09:23:42;;;;;;;11.93;5.57;;;13.30;99.90;;;;;;5080478;28;20079;-94
2022/10/23 09:26:17;;;;;;;12.48;5.30;;;13.30;99.90;;;;;;5077353;28;20048;-93
2022/10/23 09:28:47;;;;;;;16.60;5.68;;;13.40;99.90;;;;;;5080137;28;20053;-93
2022/10/23 09:31:13;;;;;;;8.35;5.15;;;13.40;99.90;;;;;;5049825;28;20079;-94
2022/10/23 09:33:39;;;;;;;11.43;5.68;;;13.50;99.90;;;;;;5060640;28;20109;-94
2022/10/23 09:36:12;;;;;;;10.63;5.22;;;13.50;99.90;;;;;;5061507;28;20052;-94
2022/10/23 09:38:50;;;;;;;12.15;5.10;;;13.60;99.90;;;;;;5061296;28;20052;-95
2022/10/23 09:41:29;;;;;;;12.27;5.10;;;13.70;99.90;;;;;;5059462;28;20044;-92
2022/10/23 09:44:07;;;;;;;10.93;5.55;;;13.80;99.90;;;;;;5060525;28;20123;-91
2022/10/23 09:46:44;;;;;;;8.80;5.05;;;13.90;99.90;;;;;;5046097;28;20049;-92
2022/10/23 09:49:24;;;;;;;13.85;5.55;;;13.90;99.90;;;;;;5073460;28;20066;-91
2022/10/23 09:52:18;;;;;;;8.70;4.80;;;13.90;99.90;;;;;;5080978;28;20092;-93
2022/10/23 09:55:00;;;;;;;12.63;5.10;;;14.00;99.90;;;;;;5058637;28;20077;-94
2022/10/23 09:57:43;;;;;;;9.53;4.33;;;14.00;99.90;;;;;;5061675;28;20049;-94
2022/10/23 10:00:18;;;;;;;8.70;4.18;;;14.10;99.90;;;;;;5044016;28;20060;-94
2022/10/23 10:03:02;;;;;;;13.70;3.38;;;14.10;99.90;;;;;;5080217;28;20080;-91
2022/10/23 10:05:37;;;;;;;12.10;5.75;;;14.20;99.90;;;;;;5080260;28;20052;-92
2022/10/23 10:08:25;;;;;;;7.90;3.83;;;14.30;99.90;;;;;;5067255;28;20040;-93
2022/10/23 10:11:06;;;;;;;9.77;4.60;;;14.30;99.90;;;;;;5048573;28;20061;-90
2022/10/23 10:13:32;;;;;;;11.82;4.68;;;14.40;99.90;;;;;;5060672;28;20753;-92
2022/10/23 10:16:10;;;;;;;25.92;4.78;;;14.40;99.90;;;;;;5061334;28;20037;-92
2022/10/23 10:18:57;;;;;;;11.05;4.88;;;14.50;99.90;;;;;;5064751;28;20049;-92
2022/10/23 10:21:25;;;;;;;7.38;4.10;;;14.60;99.90;;;;;;5062112;28;20127;-90
2022/10/23 10:24:35;;;;;;;13.15;4.20;;;14.70;99.90;;;;;;5068256;28;20103;-90
2022/10/23 10:27:07;;;;;;;11.52;3.42;;;14.90;99.90;;;;;;5017490;28;20121;-90
2022/10/23 10:29:53;;;;;;;9.20;4.35;;;15.00;99.90;;;;;;5015819;28;20072;-88
2022/10/23 10:32:37;;;;;;;7.65;3.47;;;15.00;99.90;;;;;;5046012;28;20057;-88
2022/10/23 10:35:11;;;;;;;9.35;3.47;;;15.00;99.90;;;;;;5054219;28;20044;-89
2022/10/23 10:37:48;;;;;;;11.27;3.70;;;15.00;99.90;;;;;;5047280;28;20103;-89
2022/10/23 10:40:46;;;;;;;4.53;2.80;;;15.00;99.90;;;;;;5065601;28;20053;-88
2022/10/23 10:43:34;;;;;;;12.68;6.95;;;15.00;99.90;;;;;;5083829;28;20059;-89
2022/10/23 10:46:21;;;;;;;15.00;3.45;;;15.00;99.90;;;;;;5050713;28;20041;-90
2022/10/23 10:49:05;;;;;;;13.57;3.85;;;15.00;99.90;;;;;;5050161;28;20073;-88
2022/10/23 10:51:47;;;;;;;13.40;3.63;;;15.00;99.90;;;;;;5088697;28;20070;-91
2022/10/23 10:54:32;;;;;;;;;;;15.00;99.90;;;;;;5080701;28;20055;-90
2022/10/23 10:57:01;;;;;;;9.02;2.90;;;14.90;99.90;;;;;;5079436;28;19946;-91
2022/10/23 10:59:30;;;;;;;10.10;2.90;;;14.90;99.90;;;;;;5071469;28;20048;-88
2022/10/23 11:02:41;;;;;;;8.27;3.40;;;14.90;99.90;;;;;;5068827;28;20037;-90
2022/10/23 11:05:12;;;;;;;6.47;3.17;;;15.00;99.90;;;;;;5077936;28;20538;-91
2022/10/23 11:07:50;;;;;;;10.52;2.40;;;14.90;99.90;;;;;;5066674;28;20036;-92
2022/10/23 11:10:17;;;;;;;3.28;2.63;;;14.80;99.90;;;;;;5060263;28;20048;-93
2022/10/23 11:12:45;;;;;;;5.22;2.67;;;14.80;99.90;;;;;;5059675;28;20068;-91
2022/10/23 11:15:17;;;;;;;7.32;3.00;;;14.80;99.90;;;;;;5057815;28;20052;-93
2022/10/23 11:17:48;;;;;;;4.60;2.50;;;14.80;99.90;;;;;;5059641;28;20102;-93
2022/10/23 11:20:29;;;;;;;7.80;2.60;;;14.80;99.90;;;;;;5074472;28;20053;-95
2022/10/23 11:23:20;;;;;;;6.40;2.40;;;14.80;99.90;;;;;;5051753;28;20491;-90
2022/10/23 11:26:10;;;;;;;15.10;3.20;;;14.80;99.90;;;;;;5053141;28;20044;-89
2022/10/23 11:28:49;;;;;;;7.13;2.95;;;14.80;99.90;;;;;;5070640;28;20049;-88
2022/10/23 11:31:42;;;;;;;8.90;3.05;;;14.80;99.90;;;;;;5066568;28;20094;-93
2022/10/23 11:34:44;;;;;;;9.00;2.63;;;14.90;99.90;;;;;;5046135;28;20650;-93
2022/10/23 11:37:15;;;;;;;10.90;2.72;;;15.00;99.90;;;;;;5065991;28;20050;-93
2022/10/23 11:39:55;;;;;;;8.77;3.38;;;15.00;99.90;;;;;;5050009;28;20069;-94
2022/10/23 11:42:39;;;;;;;11.13;2.92;;;15.00;99.90;;;;;;5064664;28;21867;-91
2022/10/23 11:45:32;;;;;;;6.72;2.60;;;15.10;99.90;;;;;;5064092;28;20643;-91
2022/10/23 11:48:03;;;;;;;3.15;2.30;;;15.10;99.90;;;;;;5068699;28;20491;-92
2022/10/23 11:50:48;;;;;;;2.45;1.70;;;15.20;99.90;;;;;;5061547;28;20067;-91
2022/10/23 11:53:26;;;;;;;8.57;3.47;;;15.20;99.90;;;;;;5066026;28;20052;-89
2022/10/23 11:56:05;;;;;;;9.70;2.63;;;15.20;99.90;;;;;;5065078;28;20040;-93
2022/10/23 11:58:54;;;;;;;7.32;2.25;;;15.20;99.90;;;;;;5063194;28;20060;-90
2022/10/23 12:01:26;;;;;;;7.05;2.40;;;15.20;99.90;;;;;;5042215;28;20048;-91
2022/10/23 12:04:10;;;;;;;5.38;2.13;;;15.20;99.90;;;;;;5057234;28;20056;-93
2022/10/23 12:07:01;;;;;;;8.07;2.67;;;15.20;99.90;;;;;;5055654;28;20048;-92
2022/10/23 12:09:52;;;;;;;7.32;2.45;;;15.20;99.90;;;;;;5057612;28;20052;-92
2022/10/23 12:12:39;;;;;;;5.83;2.17;;;15.30;99.90;;;;;;5052037;28;20053;-91
2022/10/23 12:15:26;;;;;;;2.95;1.70;;;15.30;99.90;;;;;;5056635;28;20053;-92
2022/10/23 12:17:54;;;;;;;4.18;2.05;;;15.40;99.90;;;;;;5050659;28;142612;-91
2022/10/23 12:20:38;;;;;;;7.00;1.92;;;15.40;99.90;;;;;;5032143;28;20056;-92
2022/10/23 12:23:09;;;;;;;5.85;2.00;;;15.40;99.90;;;;;;5059854;28;20040;-92
2022/10/23 12:26:03;;;;;;;8.45;1.95;;;15.40;99.90;;;;;;5041319;28;20131;-91
2022/10/23 12:28:38;;;;;;;5.50;1.50;;;15.50;99.90;;;;;;5019487;28;20057;-91
2022/10/23 12:31:16;;;;;;;14.82;3.00;;;15.50;99.90;;;;;;5041349;28;20064;-92
2022/10/23 12:34:06;;;;;;;5.55;2.60;;;15.50;99.90;;;;;;5040913;28;20052;-90
2022/10/23 12:37:12;;;;;;;5.47;2.20;;;15.40;99.90;;;;;;5040114;28;20411;-91
2022/10/23 12:39:39;;;;;;;5.65;1.90;;;15.40;99.90;;;;;;5034960;28;20063;-88
2022/10/23 12:42:20;;;;;;;5.40;2.05;;;15.40;99.90;;;;;;5050609;28;20051;-88
2022/10/23 12:45:15;;;;;;;4.40;1.93;;;15.40;99.90;;;;;;5060672;28;20747;-87
2022/10/23 12:47:43;;;;;;;4.63;2.25;;;15.30;99.90;;;;;;5078814;28;20422;-86
2022/10/23 12:50:21;;;;;;;2.72;1.75;;;15.30;99.90;;;;;;5046843;28;20049;-88
2022/10/23 12:52:55;;;;;;;5.22;1.92;;;15.30;99.90;;;;;;5044325;28;20710;-86
2022/10/23 12:55:22;;;;;;;10.77;2.05;;;15.30;99.90;;;;;;5058136;28;20059;-87
2022/10/23 12:57:47;;;;;;;3.47;2.20;;;15.20;99.90;;;;;;5062898;28;20048;-86
2022/10/23 13:00:19;;;;;;;9.80;2.25;;;15.20;99.90;;;;;;5065178;28;20037;-86
2022/10/23 13:02:45;;;;;;;10.73;2.57;;;15.20;99.90;;;;;;5061307;28;20067;-86
2022/10/23 13:05:16;;;;;;;5.13;2.38;;;15.30;99.90;;;;;;5061909;28;20080;-86
2022/10/23 13:07:44;;;;;;;9.70;3.00;;;15.30;99.90;;;;;;5060516;28;20041;-86